Time;durP1;ratioP1;P1;durP2;ratioP2;P2;SDS_P1;SDS_P2;PMS_P1;PMS_P2;Temp;Humidity;BMP_temperature;BMP_pressure;BME280_temperature;BME280_humidity;BME280_pressure;Samples;Min_cycle;Max_cycle;Signal;HPM_P1;HPM_P2
2023/02/27 00:02:10;;;;;;;7.53;2.53;;;2.50;1.00;;;;;;4934555;29;20162;-82
2023/02/27 00:04:45;;;;;;;7.63;2.10;;;2.50;1.00;;;;;;4933470;29;20657;-86
2023/02/27 00:07:11;;;;;;;6.23;2.40;;;2.50;1.00;;;;;;4929163;29;20216;-92
2023/02/27 00:09:43;;;;;;;7.70;2.33;;;2.50;1.00;;;;;;4921491;29;20185;-92
2023/02/27 00:12:10;;;;;;;5.90;2.37;;;2.40;1.00;;;;;;4933567;29;20202;-85
2023/02/27 00:14:36;;;;;;;5.43;2.23;;;2.40;1.00;;;;;;4937440;29;20189;-84
2023/02/27 00:17:02;;;;;;;7.60;2.23;;;2.40;1.00;;;;;;4934539;29;20200;-88
2023/02/27 00:19:29;;;;;;;4.53;2.50;;;2.40;1.00;;;;;;4931187;29;20170;-87
2023/02/27 00:22:17;;;;;;;8.73;2.63;;;2.30;1.00;;;;;;4926813;29;20630;-84
2023/02/27 00:24:43;;;;;;;6.83;2.57;;;2.30;1.00;;;;;;4930047;29;20213;-88
2023/02/27 00:27:12;;;;;;;6.90;2.10;;;2.40;1.00;;;;;;4926096;29;20210;-89
2023/02/27 00:29:38;;;;;;;5.97;2.43;;;2.40;1.00;;;;;;4920990;29;20657;-89
2023/02/27 00:32:29;;;;;;;10.87;2.33;;;2.30;1.00;;;;;;4918491;29;20197;-92
2023/02/27 00:34:54;;;;;;;8.63;2.40;;;2.30;1.00;;;;;;4919083;29;20292;-92
2023/02/27 00:37:20;;;;;;;4.53;1.83;;;2.30;1.00;;;;;;4918154;29;20182;-91
2023/02/27 00:39:46;;;;;;;4.17;1.90;;;2.30;1.00;;;;;;4919770;29;20197;-89
2023/02/27 00:42:13;;;;;;;4.50;1.77;;;2.20;1.00;;;;;;4919073;29;20220;-91
2023/02/27 00:44:40;;;;;;;6.87;2.00;;;2.20;1.00;;;;;;4918217;29;20189;-92
2023/02/27 00:47:06;;;;;;;3.83;1.70;;;2.20;1.00;;;;;;4918652;29;20280;-91
2023/02/27 00:49:32;;;;;;;5.70;2.33;;;2.20;1.00;;;;;;4919269;29;20182;-92
2023/02/27 00:51:58;;;;;;;4.10;1.60;;;2.10;1.00;;;;;;4918903;29;20294;-90
2023/02/27 00:54:24;;;;;;;4.57;1.60;;;2.10;1.00;;;;;;4920450;29;20169;-88
2023/02/27 00:56:49;;;;;;;5.40;1.67;;;2.10;1.00;;;;;;4921098;29;20186;-92
2023/02/27 00:59:16;;;;;;;5.40;1.70;;;2.20;1.00;;;;;;4941139;28;20193;-93
2023/02/27 01:01:43;;;;;;;5.00;1.67;;;2.00;1.00;;;;;;4958434;28;20223;-90
2023/02/27 01:04:10;;;;;;;2.87;1.50;;;2.00;1.00;;;;;;4955219;29;20181;-92
2023/02/27 01:06:36;;;;;;;4.07;1.60;;;1.90;1.00;;;;;;4941745;29;20216;-91
2023/02/27 01:09:05;;;;;;;5.20;1.80;;;1.90;1.00;;;;;;4956487;29;20182;-86
2023/02/27 01:11:30;;;;;;;3.20;1.30;;;1.90;1.00;;;;;;4961063;29;20157;-92
2023/02/27 01:13:56;;;;;;;5.93;1.90;;;1.90;1.00;;;;;;4955632;29;20213;-87
2023/02/27 01:16:24;;;;;;;4.63;1.90;;;1.90;1.00;;;;;;4960799;28;20188;-86
2023/02/27 01:18:52;;;;;;;8.90;2.17;;;1.90;1.00;;;;;;4944350;29;20166;-85
2023/02/27 01:21:18;;;;;;;3.77;1.67;;;1.90;1.00;;;;;;4960389;29;20181;-87
2023/02/27 01:23:59;;;;;;;5.23;1.90;;;2.10;1.00;;;;;;4957160;29;20229;-87
2023/02/27 01:26:36;;;;;;;4.03;2.07;;;2.00;1.00;;;;;;4959455;29;20611;-85
2023/02/27 01:29:02;;;;;;;2.80;1.60;;;1.80;1.00;;;;;;4955643;29;20169;-85
2023/02/27 01:31:28;;;;;;;5.47;1.80;;;1.80;1.00;;;;;;4955946;29;20191;-93
2023/02/27 01:33:55;;;;;;;2.97;1.30;;;1.80;1.00;;;;;;4946060;29;20193;-91
2023/02/27 01:36:24;;;;;;;5.13;1.63;;;1.80;1.00;;;;;;4945464;29;20642;-92
2023/02/27 01:38:55;;;;;;;4.83;1.47;;;1.70;1.00;;;;;;4947533;29;20173;-89
2023/02/27 01:41:31;;;;;;;5.27;1.97;;;1.70;1.00;;;;;;4955769;29;20177;-93
2023/02/27 01:44:06;;;;;;;3.50;1.90;;;1.60;1.00;;;;;;4957024;29;20203;-83
2023/02/27 01:46:36;;;;;;;7.27;1.90;;;1.70;1.00;;;;;;4949895;29;20216;-91
2023/02/27 01:49:23;;;;;;;3.83;1.70;;;1.80;1.00;;;;;;4951603;29;20171;-84
2023/02/27 01:52:09;;;;;;;6.60;1.90;;;1.70;1.00;;;;;;4944698;29;20169;-90
2023/02/27 01:54:39;;;;;;;4.70;2.10;;;1.60;1.00;;;;;;4940308;29;20629;-84
2023/02/27 01:57:12;;;;;;;3.73;1.70;;;1.60;1.00;;;;;;4942269;29;20174;-91
2023/02/27 01:59:40;;;;;;;4.73;2.00;;;1.60;1.00;;;;;;4946002;29;20184;-92
2023/02/27 02:02:16;;;;;;;3.87;2.00;;;1.60;1.00;;;;;;4940531;29;20181;-91
2023/02/27 02:04:45;;;;;;;5.87;1.87;;;1.60;1.00;;;;;;4941115;29;20252;-92
2023/02/27 02:07:17;;;;;;;6.03;2.20;;;1.60;1.00;;;;;;4942209;29;20303;-92
2023/02/27 02:09:48;;;;;;;6.07;2.00;;;1.60;1.00;;;;;;4942059;29;20180;-91
2023/02/27 02:12:15;;;;;;;4.67;2.00;;;1.60;1.00;;;;;;4941333;29;20540;-91
2023/02/27 02:14:42;;;;;;;3.90;1.90;;;1.60;1.00;;;;;;4938544;29;20192;-82
2023/02/27 02:17:17;;;;;;;6.20;2.20;;;1.60;1.00;;;;;;4936951;29;20201;-85
2023/02/27 02:19:57;;;;;;;6.23;2.30;;;1.60;1.00;;;;;;4936753;29;20176;-85
2023/02/27 02:22:49;;;;;;;4.20;1.77;;;1.50;1.00;;;;;;4937209;29;20183;-84
2023/02/27 02:25:17;;;;;;;3.60;1.90;;;1.40;1.00;;;;;;4936990;29;20232;-85
2023/02/27 02:28:09;;;;;;;8.47;2.03;;;1.40;1.00;;;;;;4936885;29;20189;-84
2023/02/27 02:30:55;;;;;;;5.33;1.77;;;1.40;1.00;;;;;;4936093;29;20193;-84
2023/02/27 02:33:35;;;;;;;4.97;2.30;;;1.40;1.00;;;;;;4949278;29;20173;-90
2023/02/27 02:36:32;;;;;;;5.73;1.93;;;1.40;1.00;;;;;;4939994;29;20241;-84
2023/02/27 02:39:19;;;;;;;6.07;2.23;;;1.40;1.00;;;;;;4937584;29;20744;-87
2023/02/27 02:42:07;;;;;;;5.37;2.53;;;1.50;1.00;;;;;;4940829;29;20181;-81
2023/02/27 02:44:43;;;;;;;7.27;2.27;;;1.40;1.00;;;;;;4939107;29;20173;-83
2023/02/27 02:47:36;;;;;;;6.50;2.00;;;1.30;1.00;;;;;;4943535;29;20214;-82
2023/02/27 02:50:26;;;;;;;4.57;1.90;;;1.30;1.00;;;;;;4940692;29;20169;-83
2023/02/27 02:53:35;;;;;;;5.30;2.17;;;1.20;1.00;;;;;;4942078;29;20293;-83
2023/02/27 02:56:28;;;;;;;5.63;1.90;;;1.30;1.00;;;;;;4957402;29;20187;-86
2023/02/27 02:59:06;;;;;;;4.67;1.80;;;1.30;1.00;;;;;;4942299;29;20187;-86
2023/02/27 03:01:41;;;;;;;4.57;2.00;;;1.30;1.00;;;;;;4938275;29;20181;-89
2023/02/27 03:04:15;;;;;;;4.57;1.97;;;1.30;1.00;;;;;;4936957;29;20191;-88
2023/02/27 03:06:55;;;;;;;9.57;2.50;;;1.20;1.00;;;;;;4938587;29;20267;-84
2023/02/27 03:09:31;;;;;;;5.33;1.97;;;1.20;1.00;;;;;;4937259;29;20177;-87
2023/02/27 03:11:58;;;;;;;6.90;2.20;;;1.20;1.00;;;;;;4941262;29;20184;-88
2023/02/27 03:14:31;;;;;;;5.87;2.20;;;1.20;1.00;;;;;;4939307;29;20215;-93
2023/02/27 03:17:03;;;;;;;3.30;1.90;;;1.20;1.00;;;;;;4939556;29;20185;-84
2023/02/27 03:19:48;;;;;;;4.63;2.00;;;1.20;1.00;;;;;;4937544;29;20177;-85
2023/02/27 03:22:19;;;;;;;5.33;1.97;;;1.20;1.00;;;;;;4939255;29;20177;-88
2023/02/27 03:24:51;;;;;;;8.67;2.23;;;1.20;1.00;;;;;;4941142;29;20205;-89
2023/02/27 03:27:18;;;;;;;7.27;2.30;;;1.20;1.00;;;;;;4938246;29;20673;-91
2023/02/27 03:30:00;;;;;;;6.83;2.50;;;1.20;1.00;;;;;;4937992;29;20264;-90
2023/02/27 03:32:28;;;;;;;4.37;2.40;;;1.10;1.00;;;;;;4937804;29;20192;-82
2023/02/27 03:34:55;;;;;;;5.03;2.30;;;1.10;1.00;;;;;;4943403;29;20252;-84
2023/02/27 03:37:29;;;;;;;4.20;2.27;;;1.10;1.00;;;;;;4945868;29;20187;-83
2023/02/27 03:40:03;;;;;;;6.57;2.33;;;1.10;1.00;;;;;;4941310;29;20172;-90
2023/02/27 03:43:01;;;;;;;7.17;2.77;;;1.10;1.00;;;;;;4941409;29;20188;-89
2023/02/27 03:45:53;;;;;;;6.37;2.77;;;1.10;1.00;;;;;;4941253;29;20235;-87
2023/02/27 03:48:19;;;;;;;7.10;2.50;;;1.10;1.00;;;;;;4938488;28;20164;-84
2023/02/27 03:50:48;;;;;;;5.53;2.03;;;1.10;1.00;;;;;;4950170;29;20185;-90
2023/02/27 03:53:43;;;;;;;5.07;1.97;;;1.10;1.00;;;;;;4956893;29;20169;-83
2023/02/27 03:56:13;;;;;;;5.53;2.13;;;1.10;1.00;;;;;;4949314;29;20192;-86
2023/02/27 03:58:39;;;;;;;5.23;2.27;;;1.00;1.00;;;;;;4943987;29;20169;-90
2023/02/27 04:01:07;;;;;;;7.97;2.80;;;1.00;1.00;;;;;;4923352;29;20185;-81
2023/02/27 04:03:38;;;;;;;5.80;2.50;;;1.00;1.00;;;;;;4949144;29;20180;-82
2023/02/27 04:07:21;;;;;;;6.90;2.70;;;1.00;1.00;;;;;;4951623;29;20213;-84
2023/02/27 04:09:21;;;;;;;3.17;1.80;;;0.90;1.00;;;;;;4950136;29;20177;-90
2023/02/27 04:12:11;;;;;;;5.57;2.00;;;0.90;1.00;;;;;;4947695;29;20192;-84
2023/02/27 04:15:06;;;;;;;5.70;2.00;;;0.90;1.00;;;;;;4948348;29;20231;-83
2023/02/27 04:17:57;;;;;;;5.57;2.10;;;0.90;1.00;;;;;;4943883;29;20169;-82
2023/02/27 04:20:47;;;;;;;4.83;2.00;;;1.00;1.00;;;;;;4947774;29;20276;-88
2023/02/27 04:23:27;;;;;;;8.07;2.40;;;0.90;1.00;;;;;;4937455;29;20169;-85
2023/02/27 04:26:05;;;;;;;7.03;2.13;;;0.90;1.00;;;;;;4938100;29;20217;-87
2023/02/27 04:28:42;;;;;;;7.13;2.27;;;0.90;1.00;;;;;;4937689;29;20153;-87
2023/02/27 04:31:31;;;;;;;7.67;2.20;;;0.80;1.00;;;;;;4935665;29;20199;-86
2023/02/27 04:34:07;;;;;;;4.97;2.10;;;0.90;1.00;;;;;;4938816;29;20180;-85
2023/02/27 04:37:02;;;;;;;4.87;2.00;;;0.90;1.00;;;;;;4939455;29;20200;-87
2023/02/27 04:39:38;;;;;;;4.80;2.27;;;0.90;1.00;;;;;;4942215;29;20189;-83
2023/02/27 04:42:30;;;;;;;4.27;2.10;;;0.80;1.00;;;;;;4938738;29;20532;-83
2023/02/27 04:44:59;;;;;;;6.53;2.07;;;0.80;1.00;;;;;;4938777;29;20188;-85
2023/02/27 04:47:29;;;;;;;4.63;1.97;;;0.80;1.00;;;;;;4939271;29;20227;-83
2023/02/27 04:50:04;;;;;;;5.17;1.87;;;0.80;1.00;;;;;;4938376;29;20173;-83
2023/02/27 04:52:35;;;;;;;6.33;2.20;;;0.70;1.00;;;;;;4939205;29;20637;-82
2023/02/27 04:55:12;;;;;;;5.40;2.27;;;0.70;1.00;;;;;;4939623;29;20177;-83
2023/02/27 04:57:52;;;;;;;6.50;2.10;;;0.80;1.00;;;;;;4938606;29;20180;-84
2023/02/27 05:00:23;;;;;;;4.80;1.97;;;0.70;1.00;;;;;;4940203;29;20219;-84
2023/02/27 05:03:22;;;;;;;6.83;2.07;;;0.90;1.00;;;;;;4955637;28;20221;-83
2023/02/27 05:05:51;;;;;;;7.47;2.20;;;0.80;1.00;;;;;;4945292;29;20216;-85
2023/02/27 05:08:42;;;;;;;8.07;3.63;;;0.70;1.00;;;;;;4940011;29;20188;-85
2023/02/27 05:11:25;;;;;;;6.27;1.97;;;0.70;1.00;;;;;;4942225;29;20180;-83
2023/02/27 05:13:57;;;;;;;3.50;2.60;;;0.70;1.00;;;;;;4950182;29;20185;-82
2023/02/27 05:16:31;;;;;;;5.67;2.40;;;0.70;1.00;;;;;;4951956;29;20241;-82
2023/02/27 05:18:59;;;;;;;6.03;2.50;;;0.70;1.00;;;;;;4947078;29;20187;-87
2023/02/27 05:21:56;;;;;;;6.17;3.47;;;0.70;1.00;;;;;;4942835;29;20192;-90
2023/02/27 05:24:38;;;;;;;12.00;3.73;;;0.70;1.00;;;;;;4939846;29;20571;-86
2023/02/27 05:28:09;;;;;;;4.17;2.23;;;0.60;1.00;;;;;;4950202;29;20211;-87
2023/02/27 05:30:46;;;;;;;4.83;2.30;;;0.70;1.00;;;;;;4945549;29;20226;-85
2023/02/27 05:33:39;;;;;;;3.80;2.10;;;0.60;1.00;;;;;;4939840;29;20176;-90
2023/02/27 05:36:04;;;;;;;9.70;2.13;;;0.50;1.00;;;;;;4959236;29;20184;-86
2023/02/27 05:38:33;;;;;;;6.57;2.77;;;0.50;1.00;;;;;;4958180;29;20162;-82
2023/02/27 05:41:10;;;;;;;7.30;2.83;;;0.50;1.00;;;;;;4945375;29;20185;-89
2023/02/27 05:43:47;;;;;;;7.63;2.60;;;0.50;1.00;;;;;;4941009;29;20185;-87
2023/02/27 05:46:18;;;;;;;4.43;2.67;;;0.50;1.00;;;;;;4905345;29;20212;-87
2023/02/27 05:49:06;;;;;;;7.30;2.50;;;0.40;1.00;;;;;;4919825;29;20237;-90
2023/02/27 05:51:34;;;;;;;7.07;2.30;;;0.40;1.00;;;;;;4918422;29;20185;-86
2023/02/27 05:54:19;;;;;;;8.63;2.10;;;0.50;1.00;;;;;;4919798;29;20252;-85
2023/02/27 05:56:48;;;;;;;13.27;3.17;;;0.50;1.00;;;;;;4917960;29;20177;-84
2023/02/27 05:59:22;;;;;;;6.97;3.20;;;0.50;1.00;;;;;;4918470;29;20178;-83
2023/02/27 06:01:49;;;;;;;6.27;2.43;;;0.50;1.00;;;;;;4918159;29;20177;-85
2023/02/27 06:04:15;;;;;;;6.90;2.40;;;0.30;1.00;;;;;;4918587;29;20200;-81
2023/02/27 06:06:40;;;;;;;15.53;3.50;;;0.50;1.00;;;;;;4921730;29;20681;-82
2023/02/27 06:09:08;;;;;;;7.50;2.80;;;0.50;1.00;;;;;;4921334;29;20168;-83
2023/02/27 06:11:33;;;;;;;7.63;2.73;;;0.50;1.00;;;;;;4919765;29;20185;-83
2023/02/27 06:13:59;;;;;;;8.70;5.17;;;0.40;1.00;;;;;;4922493;29;20181;-83
2023/02/27 06:16:28;;;;;;;6.17;3.10;;;0.40;1.00;;;;;;4936552;29;20234;-82
2023/02/27 06:19:00;;;;;;;6.77;3.40;;;0.50;1.00;;;;;;4920983;29;20174;-89
2023/02/27 06:21:27;;;;;;;5.43;3.80;;;0.50;1.00;;;;;;4920441;29;20185;-85
2023/02/27 06:23:53;;;;;;;6.67;2.70;;;0.40;1.00;;;;;;4918840;29;20580;-85
2023/02/27 06:26:18;;;;;;;7.70;2.87;;;0.50;1.00;;;;;;4920311;29;20213;-87
2023/02/27 06:28:45;;;;;;;6.17;2.97;;;0.40;1.00;;;;;;4923316;29;20189;-89
2023/02/27 06:31:11;;;;;;;8.07;3.37;;;0.40;1.00;;;;;;4924575;29;20228;-88
2023/02/27 06:33:40;;;;;;;10.20;3.40;;;0.40;1.00;;;;;;4922213;29;20181;-88
2023/02/27 06:36:06;;;;;;;4.77;2.70;;;0.40;1.00;;;;;;4935993;29;20165;-85
2023/02/27 06:38:32;;;;;;;6.30;2.80;;;0.40;1.00;;;;;;4934924;29;20189;-85
2023/02/27 06:40:58;;;;;;;5.07;2.60;;;0.30;1.00;;;;;;4938396;29;20174;-85
2023/02/27 06:43:24;;;;;;;7.20;2.90;;;0.30;1.00;;;;;;4937903;29;20166;-82
2023/02/27 06:45:54;;;;;;;8.33;4.33;;;0.30;1.00;;;;;;4931370;29;20306;-85
2023/02/27 06:48:28;;;;;;;9.23;3.70;;;0.40;1.00;;;;;;4930150;29;20182;-82
2023/02/27 06:50:55;;;;;;;10.67;3.30;;;0.40;1.00;;;;;;4929987;29;20178;-84
2023/02/27 06:53:23;;;;;;;8.20;4.00;;;0.50;1.00;;;;;;4919907;29;20170;-87
2023/02/27 06:55:48;;;;;;;11.30;3.83;;;0.50;1.00;;;;;;4917722;29;20189;-86
2023/02/27 06:58:17;;;;;;;7.20;3.53;;;0.50;1.00;;;;;;4916767;29;20741;-86
2023/02/27 07:00:43;;;;;;;8.23;3.53;;;0.50;1.00;;;;;;4918425;29;20201;-84
2023/02/27 07:03:09;;;;;;;11.87;3.57;;;0.50;1.00;;;;;;4917092;29;20182;-87
2023/02/27 07:05:35;;;;;;;12.50;4.00;;;0.50;1.00;;;;;;4919356;29;20177;-83
2023/02/27 07:08:04;;;;;;;9.40;3.00;;;0.60;1.00;;;;;;4921052;29;20191;-83
2023/02/27 07:10:30;;;;;;;5.73;3.43;;;0.60;1.00;;;;;;4920268;29;20206;-91
2023/02/27 07:12:56;;;;;;;8.20;3.40;;;0.60;1.00;;;;;;4919651;29;20170;-84
2023/02/27 07:15:21;;;;;;;10.13;3.83;;;0.60;1.00;;;;;;4917063;29;20170;-85
2023/02/27 07:17:47;;;;;;;10.83;3.93;;;0.60;1.00;;;;;;4916958;29;20637;-84
2023/02/27 07:20:13;;;;;;;5.53;3.00;;;0.50;1.00;;;;;;4915896;29;20253;-84
2023/02/27 07:22:40;;;;;;;7.07;3.63;;;0.50;1.00;;;;;;4906212;29;20650;-84
2023/02/27 07:25:08;;;;;;;6.40;3.60;;;0.50;1.00;;;;;;4882741;29;20210;-84
2023/02/27 07:27:34;;;;;;;8.30;3.60;;;0.50;1.00;;;;;;4916220;29;20214;-85
2023/02/27 07:29:59;;;;;;;9.70;3.53;;;0.50;1.00;;;;;;4926378;29;20182;-85
2023/02/27 07:32:29;;;;;;;6.10;3.70;;;0.60;1.00;;;;;;4915006;29;20642;-85
2023/02/27 07:34:54;;;;;;;11.97;3.70;;;0.60;1.00;;;;;;4896517;29;20178;-84
2023/02/27 07:37:20;;;;;;;6.97;3.60;;;0.60;1.00;;;;;;4916778;29;20533;-82
2023/02/27 07:39:45;;;;;;;8.80;3.97;;;0.60;1.00;;;;;;4918005;29;20701;-83
2023/02/27 07:42:11;;;;;;;8.77;3.60;;;0.80;1.00;;;;;;4920838;29;20212;-83
2023/02/27 07:44:39;;;;;;;8.67;3.07;;;0.70;1.00;;;;;;4914966;29;20645;-85
2023/02/27 07:47:07;;;;;;;7.33;3.80;;;0.70;1.00;;;;;;4898885;29;20210;-85
2023/02/27 07:49:36;;;;;;;11.00;4.17;;;0.80;1.00;;;;;;4914205;29;20584;-85
2023/02/27 07:52:01;;;;;;;10.07;4.17;;;0.90;1.00;;;;;;4897433;29;20186;-84
2023/02/27 07:54:27;;;;;;;12.27;4.70;;;0.90;1.00;;;;;;4913921;29;20178;-84
2023/02/27 07:56:52;;;;;;;10.23;3.60;;;1.10;1.00;;;;;;4913085;29;20186;-85
2023/02/27 07:59:20;;;;;;;6.63;3.70;;;1.00;1.00;;;;;;4913165;29;20541;-89
2023/02/27 08:01:46;;;;;;;10.07;3.70;;;1.00;1.00;;;;;;4898839;29;20186;-86
2023/02/27 08:04:12;;;;;;;11.47;4.17;;;1.00;1.00;;;;;;4913117;29;20552;-84
2023/02/27 08:06:37;;;;;;;9.27;3.43;;;1.00;1.00;;;;;;4913748;29;20688;-86
2023/02/27 08:09:04;;;;;;;7.23;3.47;;;1.10;1.00;;;;;;4915805;29;20649;-87
2023/02/27 08:11:30;;;;;;;7.97;3.73;;;1.10;1.00;;;;;;4917784;29;20174;-86
2023/02/27 08:13:58;;;;;;;9.90;3.90;;;1.10;1.00;;;;;;4917756;29;20618;-85
2023/02/27 08:16:23;;;;;;;6.57;3.60;;;1.20;1.00;;;;;;4918161;29;20648;-85
2023/02/27 08:18:50;;;;;;;10.27;3.90;;;1.20;1.00;;;;;;4901498;29;20292;-90
2023/02/27 08:21:17;;;;;;;8.43;3.67;;;1.20;1.00;;;;;;4917648;29;20216;-85
2023/02/27 08:23:42;;;;;;;7.20;4.67;;;1.30;1.00;;;;;;4918289;29;20186;-85
2023/02/27 08:26:08;;;;;;;7.90;3.57;;;1.30;1.00;;;;;;4904101;29;20783;-84
2023/02/27 08:28:33;;;;;;;7.17;4.07;;;1.30;1.00;;;;;;4917761;29;20209;-85
2023/02/27 08:30:59;;;;;;;9.47;4.47;;;1.30;1.00;;;;;;4903297;29;20198;-85
2023/02/27 08:33:25;;;;;;;7.87;3.70;;;1.40;1.00;;;;;;4919099;29;20197;-86
2023/02/27 08:35:53;;;;;;;5.97;3.80;;;1.60;1.00;;;;;;4919621;29;20197;-84
2023/02/27 08:38:22;;;;;;;9.37;3.90;;;1.50;1.00;;;;;;4920016;29;20182;-85
2023/02/27 08:40:52;;;;;;;12.67;6.60;;;1.60;1.00;;;;;;4922189;29;20178;-85
2023/02/27 08:43:21;;;;;;;6.03;4.00;;;1.60;1.00;;;;;;4935629;29;20189;-83
2023/02/27 08:45:50;;;;;;;11.87;4.50;;;1.80;1.00;;;;;;4921908;29;20268;-85
2023/02/27 08:48:18;;;;;;;7.57;4.20;;;1.80;1.00;;;;;;4920268;29;20261;-86
2023/02/27 08:50:45;;;;;;;8.97;5.03;;;2.00;1.00;;;;;;4919925;29;20178;-87
2023/02/27 08:53:12;;;;;;;8.33;4.40;;;2.30;1.00;;;;;;4921085;29;20201;-91
2023/02/27 08:55:37;;;;;;;7.73;4.27;;;2.30;1.00;;;;;;4921421;29;20265;-89
2023/02/27 08:58:06;;;;;;;7.43;4.20;;;2.40;1.00;;;;;;4923201;29;20185;-87
2023/02/27 09:00:32;;;;;;;10.30;4.07;;;2.40;1.00;;;;;;4920182;29;20689;-85
2023/02/27 09:02:58;;;;;;;11.43;4.37;;;2.50;1.00;;;;;;4919462;29;20185;-87
2023/02/27 09:05:24;;;;;;;9.63;4.77;;;2.70;1.00;;;;;;4918701;29;20189;-85
2023/02/27 09:07:50;;;;;;;12.83;4.33;;;2.90;1.00;;;;;;4919685;29;20217;-86
2023/02/27 09:10:16;;;;;;;6.63;3.87;;;2.70;1.00;;;;;;4919596;29;20660;-85
2023/02/27 09:12:43;;;;;;;7.07;4.23;;;2.70;1.00;;;;;;4918818;29;20186;-87
2023/02/27 09:15:10;;;;;;;8.47;4.57;;;2.90;1.00;;;;;;4919186;29;20229;-84
2023/02/27 09:17:37;;;;;;;7.03;3.90;;;2.90;1.00;;;;;;4919402;29;20186;-84
2023/02/27 09:20:04;;;;;;;14.30;4.47;;;3.00;1.00;;;;;;4925817;29;20182;-82
2023/02/27 09:22:30;;;;;;;6.30;3.77;;;3.00;1.00;;;;;;4938325;29;20241;-82
2023/02/27 09:24:56;;;;;;;8.20;3.50;;;3.10;1.00;;;;;;4939440;29;20201;-83
2023/02/27 09:27:24;;;;;;;8.57;4.00;;;3.20;1.00;;;;;;4927366;29;20241;-88
2023/02/27 09:29:54;;;;;;;4.50;3.50;;;3.20;1.00;;;;;;4921788;29;20689;-88
2023/02/27 09:32:21;;;;;;;7.03;3.33;;;3.30;1.00;;;;;;4922050;29;20182;-85
2023/02/27 09:34:47;;;;;;;9.50;4.40;;;3.30;1.00;;;;;;4919502;29;20200;-87
2023/02/27 09:37:14;;;;;;;7.40;4.07;;;3.60;1.00;;;;;;4919612;29;20542;-87
2023/02/27 09:39:40;;;;;;;5.00;3.60;;;3.50;1.00;;;;;;4919211;29;20208;-87
2023/02/27 09:42:24;;;;;;;7.00;3.60;;;3.50;1.00;;;;;;4918940;29;20241;-86
2023/02/27 09:45:01;;;;;;;7.97;3.60;;;3.60;1.00;;;;;;4919870;29;20184;-85
2023/02/27 09:47:46;;;;;;;6.53;4.33;;;3.70;1.00;;;;;;4921120;29;20577;-87
2023/02/27 09:50:35;;;;;;;6.83;3.70;;;3.80;1.00;;;;;;4931344;29;20186;-84
2023/02/27 09:53:02;;;;;;;5.03;3.00;;;3.90;99.90;;;;;;4937137;29;20185;-86
2023/02/27 09:55:34;;;;;;;5.57;3.10;;;3.90;99.90;;;;;;4931040;29;20177;-85
2023/02/27 09:58:23;;;;;;;6.40;3.40;;;3.90;99.90;;;;;;4927341;29;20217;-86
2023/02/27 10:01:14;;;;;;;6.77;3.27;;;3.90;99.90;;;;;;4929374;29;20181;-84
2023/02/27 10:04:24;;;;;;;6.50;3.37;;;3.90;99.90;;;;;;4930691;29;20178;-83
2023/02/27 10:07:34;;;;;;;5.93;3.20;;;4.10;99.90;;;;;;4931932;29;20228;-84
2023/02/27 10:10:23;;;;;;;5.67;2.90;;;4.20;99.90;;;;;;4910434;29;20237;-88
2023/02/27 10:13:28;;;;;;;6.30;3.30;;;4.20;1.00;;;;;;4921424;29;20170;-89
2023/02/27 10:15:56;;;;;;;6.70;2.53;;;4.20;1.00;;;;;;4919493;29;20709;-86
2023/02/27 10:18:32;;;;;;;7.27;3.23;;;4.30;1.00;;;;;;4926987;29;20170;-85
2023/02/27 10:21:09;;;;;;;5.40;2.37;;;4.40;1.00;;;;;;4933934;29;20177;-86
2023/02/27 10:24:08;;;;;;;3.70;2.30;;;4.40;1.00;;;;;;4929200;29;20313;-86
2023/02/27 10:26:41;;;;;;;4.20;2.67;;;4.40;99.90;;;;;;4922934;29;20252;-86
2023/02/27 10:29:31;;;;;;;6.33;3.40;;;4.50;99.90;;;;;;4922735;29;20186;-85
2023/02/27 10:32:17;;;;;;;3.30;2.10;;;4.40;99.90;;;;;;4919290;29;20216;-84
2023/02/27 10:34:53;;;;;;;5.93;2.70;;;4.30;1.00;;;;;;4924500;29;20202;-85
2023/02/27 10:37:24;;;;;;;4.27;2.20;;;4.40;99.90;;;;;;4936266;29;20193;-85
2023/02/27 10:40:03;;;;;;;4.57;2.50;;;4.60;1.00;;;;;;4926821;29;20639;-87
2023/02/27 10:42:35;;;;;;;5.07;1.80;;;4.60;99.90;;;;;;4922283;29;20670;-85
2023/02/27 10:45:04;;;;;;;4.73;2.13;;;4.50;90.00;;;;;;4921352;29;20178;-90
2023/02/27 10:47:31;;;;;;;4.73;1.80;;;4.50;1.00;;;;;;4920812;29;20292;-85
2023/02/27 10:49:59;;;;;;;6.33;2.43;;;4.80;99.90;;;;;;4919673;29;20182;-86
2023/02/27 10:52:27;;;;;;;6.37;2.27;;;4.80;1.00;;;;;;4919143;29;20188;-85
2023/02/27 10:55:17;;;;;;;3.83;2.20;;;4.60;99.90;;;;;;4918325;29;20220;-84
2023/02/27 10:57:45;;;;;;;6.67;2.37;;;4.60;1.00;;;;;;4919842;29;20158;-90
2023/02/27 11:00:23;;;;;;;6.03;2.27;;;4.60;1.00;;;;;;4921190;29;20186;-85
2023/02/27 11:02:50;;;;;;;3.53;2.00;;;4.70;99.90;;;;;;4920204;29;20181;-86
2023/02/27 11:05:23;;;;;;;6.53;2.33;;;4.80;20.60;;;;;;4918693;29;20197;-85
2023/02/27 11:07:50;;;;;;;4.17;1.83;;;4.80;1.00;;;;;;4918786;29;20205;-85
2023/02/27 11:10:34;;;;;;;4.20;2.07;;;5.00;1.00;;;;;;4919197;29;20174;-86
2023/02/27 11:13:03;;;;;;;3.73;2.30;;;4.90;1.00;;;;;;4918397;29;20650;-86
2023/02/27 11:16:08;;;;;;;8.83;2.10;;;5.30;28.90;;;;;;4917928;29;20169;-84
2023/02/27 11:18:35;;;;;;;2.47;1.60;;;5.20;1.00;;;;;;4926257;29;20194;-85
2023/02/27 11:24:18;;;;;;;7.33;2.10;;;5.10;1.00;;;;;;4919439;29;20170;-85
2023/02/27 11:27:04;;;;;;;4.07;2.00;;;5.30;1.00;;;;;;4918339;29;20213;-86
2023/02/27 11:29:33;;;;;;;5.03;2.10;;;5.30;1.00;;;;;;4902594;29;20237;-85
2023/02/27 11:32:12;;;;;;;5.17;1.70;;;5.40;1.00;;;;;;4920005;29;20216;-86
2023/02/27 11:34:45;;;;;;;4.73;2.00;;;5.30;99.90;;;;;;4918116;29;20245;-87
2023/02/27 11:37:34;;;;;;;4.53;1.90;;;5.40;1.00;;;;;;4917628;29;20189;-85
2023/02/27 11:40:09;;;;;;;5.37;1.70;;;5.40;1.00;;;;;;4919554;29;20178;-86
2023/02/27 11:42:55;;;;;;;7.60;2.57;;;5.30;46.40;;;;;;4918567;29;20272;-85
2023/02/27 11:45:38;;;;;;;5.33;2.40;;;5.20;1.00;;;;;;4920348;29;20169;-84
2023/02/27 11:48:18;;;;;;;24.57;5.63;;;5.40;99.90;;;;;;4922549;29;20206;-84
2023/02/27 11:51:11;;;;;;;4.30;2.10;;;5.40;1.00;;;;;;4920654;29;20634;-85
2023/02/27 11:54:11;;;;;;;3.20;1.80;;;5.30;82.70;;;;;;4918955;29;20173;-87
2023/02/27 11:57:06;;;;;;;4.93;2.37;;;5.40;1.00;;;;;;4918254;29;20165;-84
2023/02/27 11:59:42;;;;;;;4.03;2.23;;;5.50;1.00;;;;;;4918574;29;20240;-87
2023/02/27 12:02:22;;;;;;;5.07;2.40;;;5.70;1.00;;;;;;4918316;29;20232;-85
2023/02/27 12:05:18;;;;;;;8.67;2.80;;;5.60;99.90;;;;;;4919693;29;20197;-85
2023/02/27 12:07:51;;;;;;;7.23;2.77;;;5.70;99.90;;;;;;4919594;29;20284;-86
2023/02/27 12:10:30;;;;;;;6.23;2.70;;;5.70;99.90;;;;;;4920328;29;20169;-85
2023/02/27 12:13:15;;;;;;;8.17;2.63;;;5.80;1.00;;;;;;4917670;29;20177;-85
2023/02/27 12:15:54;;;;;;;4.50;2.60;;;5.80;1.00;;;;;;4917341;29;20661;-85
2023/02/27 12:19:00;;;;;;;5.60;2.77;;;5.90;5.10;;;;;;4918262;29;20544;-85
2023/02/27 12:21:30;;;;;;;7.80;2.40;;;5.90;35.90;;;;;;4916630;29;20193;-87
2023/02/27 12:23:59;;;;;;;4.83;2.30;;;5.90;1.00;;;;;;4917192;29;20177;-86
2023/02/27 12:26:31;;;;;;;4.87;2.10;;;5.70;1.00;;;;;;4916735;29;20213;-86
2023/02/27 12:29:16;;;;;;;5.20;2.33;;;6.00;1.00;;;;;;4916604;29;20196;-86
2023/02/27 12:31:51;;;;;;;3.93;2.03;;;5.80;99.90;;;;;;4917251;29;20193;-85
2023/02/27 12:34:21;;;;;;;4.73;2.27;;;5.90;99.90;;;;;;4919022;29;20252;-86
2023/02/27 12:36:47;;;;;;;4.60;2.43;;;5.90;99.90;;;;;;4923269;29;20177;-89
2023/02/27 12:39:19;;;;;;;3.80;1.73;;;5.90;1.00;;;;;;4905758;29;20182;-87
2023/02/27 12:42:09;;;;;;;4.60;1.80;;;5.90;1.00;;;;;;4918605;29;20278;-85
2023/02/27 12:44:40;;;;;;;3.37;1.53;;;6.00;99.90;;;;;;4927234;29;20173;-83
2023/02/27 12:47:38;;;;;;;2.67;1.60;;;6.10;99.90;;;;;;4923784;29;20214;-84
2023/02/27 12:50:24;;;;;;;2.00;1.00;;;6.20;99.90;;;;;;4930486;29;20188;-85
2023/02/27 12:53:01;;;;;;;3.23;1.90;;;6.10;99.90;;;;;;4934623;29;20213;-86
2023/02/27 12:55:45;;;;;;;4.40;1.60;;;6.10;58.70;;;;;;4938339;29;20632;-85
2023/02/27 12:58:40;;;;;;;4.53;1.73;;;6.20;99.90;;;;;;4935461;29;20197;-85
2023/02/27 13:01:44;;;;;;;5.83;1.77;;;6.20;99.90;;;;;;4935847;29;20181;-85
2023/02/27 13:04:40;;;;;;;3.57;1.60;;;6.30;16.80;;;;;;4946575;29;20247;-84
2023/02/27 13:07:23;;;;;;;3.00;1.40;;;6.40;91.50;;;;;;4951387;29;20300;-85
2023/02/27 13:10:02;;;;;;;2.63;1.50;;;6.40;1.00;;;;;;4961796;28;20173;-87
2023/02/27 13:12:52;;;;;;;3.90;1.50;;;6.40;1.00;;;;;;4936368;29;20761;-83
2023/02/27 13:15:33;;;;;;;3.33;1.80;;;6.50;1.00;;;;;;4928409;29;20241;-83
2023/02/27 13:18:36;;;;;;;4.37;1.60;;;6.40;1.00;;;;;;4928096;29;20174;-84
2023/02/27 13:24:31;;;;;;;3.47;1.43;;;6.60;99.90;;;;;;4925367;29;20166;-85
2023/02/27 13:27:24;;;;;;;4.93;1.57;;;6.60;1.00;;;;;;4924931;29;20245;-88
2023/02/27 13:30:20;;;;;;;6.37;1.63;;;6.60;1.00;;;;;;4924545;29;20178;-88
2023/02/27 13:33:20;;;;;;;4.53;1.40;;;6.60;99.90;;;;;;4921046;29;20297;-84
2023/02/27 13:36:12;;;;;;;4.13;1.40;;;6.50;99.90;;;;;;4917596;29;20665;-86
2023/02/27 13:38:45;;;;;;;4.70;1.60;;;6.40;99.90;;;;;;4919841;29;20166;-88
2023/02/27 13:41:23;;;;;;;6.60;1.80;;;6.30;1.00;;;;;;4919667;29;20170;-85
2023/02/27 13:44:19;;;;;;;2.47;1.53;;;6.40;1.00;;;;;;4920603;29;20653;-85
2023/02/27 13:46:46;;;;;;;3.33;1.60;;;6.80;1.00;;;;;;4918967;29;20209;-84
2023/02/27 13:49:25;;;;;;;3.57;1.50;;;6.60;99.90;;;;;;4921031;29;20205;-86
2023/02/27 13:51:55;;;;;;;4.07;2.03;;;6.50;99.90;;;;;;4919416;29;20178;-86
2023/02/27 13:54:26;;;;;;;4.17;1.50;;;6.60;1.00;;;;;;4924628;29;20177;-83